sensor_id;sensor_type;location;lat;lon;timestamp;P1;durP1;ratioP1;P2;durP2;ratioP2
49147;SDS011;41980;45.550;12.070;2022-10-28T00:02:34;13.38;;;7.20;;
49147;SDS011;41980;45.550;12.070;2022-10-28T00:08:37;6.90;;;4.40;;
49147;SDS011;41980;45.550;12.070;2022-10-28T00:14:39;11.30;;;6.03;;
49147;SDS011;41980;45.550;12.070;2022-10-28T00:20:41;11.82;;;6.22;;
49147;SDS011;41980;45.550;12.070;2022-10-28T00:26:43;7.22;;;4.70;;
49147;SDS011;41980;45.550;12.070;2022-10-28T00:32:47;10.50;;;5.38;;
49147;SDS011;41980;45.550;12.070;2022-10-28T00:38:49;6.78;;;4.68;;
49147;SDS011;41980;45.550;12.070;2022-10-28T00:44:55;6.28;;;4.40;;
49147;SDS011;41980;45.550;12.070;2022-10-28T00:50:58;8.23;;;5.45;;
49147;SDS011;41980;45.550;12.070;2022-10-28T00:57:01;8.32;;;5.95;;
49147;SDS011;41980;45.550;12.070;2022-10-28T01:03:06;9.48;;;5.80;;
49147;SDS011;41980;45.550;12.070;2022-10-28T01:09:10;11.07;;;6.38;;
49147;SDS011;41980;45.550;12.070;2022-10-28T01:27:45;8.63;;;5.95;;
49147;SDS011;41980;45.550;12.070;2022-10-28T01:40:05;8.38;;;5.80;;
49147;SDS011;41980;45.550;12.070;2022-10-28T01:46:14;9.45;;;4.97;;
49147;SDS011;41980;45.550;12.070;2022-10-28T01:52:23;6.00;;;4.05;;
49147;SDS011;41980;45.550;12.070;2022-10-28T01:58:29;5.95;;;3.95;;
49147;SDS011;41980;45.550;12.070;2022-10-28T02:04:33;7.72;;;4.07;;
49147;SDS011;41980;45.550;12.070;2022-10-28T02:10:36;5.13;;;3.70;;
49147;SDS011;41980;45.550;12.070;2022-10-28T02:16:47;5.35;;;3.55;;
49147;SDS011;41980;45.550;12.070;2022-10-28T02:22:52;6.40;;;3.92;;
49147;SDS011;41980;45.550;12.070;2022-10-28T02:29:04;4.30;;;2.80;;
49147;SDS011;41980;45.550;12.070;2022-10-28T02:35:16;6.25;;;3.70;;
49147;SDS011;41980;45.550;12.070;2022-10-28T02:47:37;6.68;;;3.95;;
49147;SDS011;41980;45.550;12.070;2022-10-28T02:53:44;7.50;;;4.50;;
49147;SDS011;41980;45.550;12.070;2022-10-28T02:59:52;5.65;;;4.00;;
49147;SDS011;41980;45.550;12.070;2022-10-28T03:05:58;5.20;;;3.38;;
49147;SDS011;41980;45.550;12.070;2022-10-28T03:11:59;5.57;;;3.00;;
49147;SDS011;41980;45.550;12.070;2022-10-28T03:18:01;3.40;;;2.30;;
49147;SDS011;41980;45.550;12.070;2022-10-28T03:24:03;4.63;;;2.70;;
49147;SDS011;41980;45.550;12.070;2022-10-28T03:30:06;3.92;;;3.00;;
49147;SDS011;41980;45.550;12.070;2022-10-28T03:36:08;5.20;;;3.00;;
49147;SDS011;41980;45.550;12.070;2022-10-28T03:42:10;5.78;;;2.83;;
49147;SDS011;41980;45.550;12.070;2022-10-28T03:48:12;3.83;;;2.63;;
49147;SDS011;41980;45.550;12.070;2022-10-28T03:54:14;4.75;;;3.00;;
49147;SDS011;41980;45.550;12.070;2022-10-28T04:00:17;6.97;;;3.38;;
49147;SDS011;41980;45.550;12.070;2022-10-28T04:06:19;6.10;;;4.35;;
49147;SDS011;41980;45.550;12.070;2022-10-28T04:12:21;5.90;;;3.88;;
49147;SDS011;41980;45.550;12.070;2022-10-28T04:18:23;5.85;;;3.97;;
49147;SDS011;41980;45.550;12.070;2022-10-28T04:24:25;6.30;;;4.40;;
49147;SDS011;41980;45.550;12.070;2022-10-28T04:30:27;6.53;;;3.83;;
49147;SDS011;41980;45.550;12.070;2022-10-28T04:36:29;7.38;;;4.88;;
49147;SDS011;41980;45.550;12.070;2022-10-28T04:42:31;9.27;;;4.43;;
49147;SDS011;41980;45.550;12.070;2022-10-28T04:48:33;6.70;;;4.32;;
49147;SDS011;41980;45.550;12.070;2022-10-28T04:54:37;6.60;;;3.63;;
49147;SDS011;41980;45.550;12.070;2022-10-28T05:00:39;6.68;;;4.50;;
49147;SDS011;41980;45.550;12.070;2022-10-28T05:06:41;7.45;;;4.05;;
49147;SDS011;41980;45.550;12.070;2022-10-28T05:12:44;6.32;;;3.38;;
49147;SDS011;41980;45.550;12.070;2022-10-28T05:18:46;4.35;;;2.53;;
49147;SDS011;41980;45.550;12.070;2022-10-28T05:24:50;3.72;;;2.70;;
49147;SDS011;41980;45.550;12.070;2022-10-28T05:30:52;5.65;;;3.50;;
49147;SDS011;41980;45.550;12.070;2022-10-28T05:36:54;5.22;;;3.10;;
49147;SDS011;41980;45.550;12.070;2022-10-28T05:42:56;4.25;;;2.70;;
49147;SDS011;41980;45.550;12.070;2022-10-28T05:48:58;4.75;;;3.17;;
49147;SDS011;41980;45.550;12.070;2022-10-28T05:55:00;5.50;;;3.90;;
49147;SDS011;41980;45.550;12.070;2022-10-28T06:07:10;3.95;;;2.78;;
49147;SDS011;41980;45.550;12.070;2022-10-28T06:13:12;4.82;;;3.28;;
49147;SDS011;41980;45.550;12.070;2022-10-28T06:19:14;7.30;;;4.07;;
49147;SDS011;41980;45.550;12.070;2022-10-28T06:25:16;5.15;;;3.63;;
49147;SDS011;41980;45.550;12.070;2022-10-28T06:31:19;5.47;;;3.70;;
49147;SDS011;41980;45.550;12.070;2022-10-28T06:37:24;5.35;;;3.95;;
49147;SDS011;41980;45.550;12.070;2022-10-28T06:43:48;8.55;;;4.22;;
49147;SDS011;41980;45.550;12.070;2022-10-28T06:50:09;6.35;;;4.00;;
49147;SDS011;41980;45.550;12.070;2022-10-28T06:57:09;5.03;;;3.40;;
49147;SDS011;41980;45.550;12.070;2022-10-28T07:04:21;5.88;;;3.70;;
49147;SDS011;41980;45.550;12.070;2022-10-28T07:18:27;4.95;;;3.60;;
49147;SDS011;41980;45.550;12.070;2022-10-28T07:24:51;4.65;;;3.67;;
49147;SDS011;41980;45.550;12.070;2022-10-28T07:31:21;6.68;;;3.85;;
49147;SDS011;41980;45.550;12.070;2022-10-28T07:37:23;4.30;;;2.75;;
49147;SDS011;41980;45.550;12.070;2022-10-28T07:43:25;4.40;;;2.75;;
49147;SDS011;41980;45.550;12.070;2022-10-28T07:49:27;3.10;;;2.38;;
49147;SDS011;41980;45.550;12.070;2022-10-28T07:55:30;3.28;;;2.20;;
49147;SDS011;41980;45.550;12.070;2022-10-28T08:01:32;3.38;;;2.10;;
49147;SDS011;41980;45.550;12.070;2022-10-28T08:07:34;4.38;;;2.10;;
49147;SDS011;41980;45.550;12.070;2022-10-28T08:13:36;3.00;;;1.77;;
49147;SDS011;41980;45.550;12.070;2022-10-28T08:19:38;3.20;;;2.35;;
49147;SDS011;41980;45.550;12.070;2022-10-28T08:31:53;4.33;;;2.77;;
49147;SDS011;41980;45.550;12.070;2022-10-28T08:37:55;3.95;;;2.13;;
49147;SDS011;41980;45.550;12.070;2022-10-28T08:50:09;3.38;;;1.98;;
49147;SDS011;41980;45.550;12.070;2022-10-28T08:56:18;2.72;;;1.60;;
49147;SDS011;41980;45.550;12.070;2022-10-28T09:02:30;5.35;;;1.63;;
49147;SDS011;41980;45.550;12.070;2022-10-28T09:08:48;2.72;;;1.60;;
49147;SDS011;41980;45.550;12.070;2022-10-28T09:21:04;2.70;;;1.60;;
49147;SDS011;41980;45.550;12.070;2022-10-28T09:27:17;7.78;;;4.57;;
49147;SDS011;41980;45.550;12.070;2022-10-28T09:39:39;2.90;;;2.10;;
49147;SDS011;41980;45.550;12.070;2022-10-28T09:45:49;5.35;;;2.10;;
49147;SDS011;41980;45.550;12.070;2022-10-28T09:58:14;4.80;;;2.75;;
49147;SDS011;41980;45.550;12.070;2022-10-28T10:04:36;6.20;;;2.15;;
49147;SDS011;41980;45.550;12.070;2022-10-28T10:16:49;3.22;;;1.92;;
49147;SDS011;41980;45.550;12.070;2022-10-28T10:22:54;2.95;;;1.45;;
49147;SDS011;41980;45.550;12.070;2022-10-28T10:29:27;2.58;;;1.58;;
49147;SDS011;41980;45.550;12.070;2022-10-28T10:35:32;3.35;;;1.70;;
49147;SDS011;41980;45.550;12.070;2022-10-28T10:41:41;2.80;;;1.55;;
49147;SDS011;41980;45.550;12.070;2022-10-28T10:47:45;2.67;;;1.35;;
49147;SDS011;41980;45.550;12.070;2022-10-28T10:53:48;4.32;;;1.83;;
49147;SDS011;41980;45.550;12.070;2022-10-28T10:59:54;3.08;;;1.52;;
49147;SDS011;41980;45.550;12.070;2022-10-28T11:05:57;4.22;;;1.63;;
49147;SDS011;41980;45.550;12.070;2022-10-28T11:18:16;2.40;;;1.50;;
49147;SDS011;41980;45.550;12.070;2022-10-28T11:30:34;4.35;;;2.03;;
49147;SDS011;41980;45.550;12.070;2022-10-28T11:42:56;4.95;;;2.42;;
49147;SDS011;41980;45.550;12.070;2022-10-28T12:07:40;2.97;;;1.60;;
49147;SDS011;41980;45.550;12.070;2022-10-28T12:13:56;4.95;;;2.33;;
49147;SDS011;41980;45.550;12.070;2022-10-28T12:20:16;3.15;;;1.60;;
49147;SDS011;41980;45.550;12.070;2022-10-28T12:32:36;3.73;;;1.50;;
49147;SDS011;41980;45.550;12.070;2022-10-28T12:44:50;3.22;;;1.98;;
49147;SDS011;41980;45.550;12.070;2022-10-28T12:57:13;2.95;;;1.40;;
49147;SDS011;41980;45.550;12.070;2022-10-28T13:03:24;3.10;;;1.40;;
49147;SDS011;41980;45.550;12.070;2022-10-28T13:28:55;2.95;;;1.80;;
49147;SDS011;41980;45.550;12.070;2022-10-28T13:41:24;4.22;;;2.08;;
49147;SDS011;41980;45.550;12.070;2022-10-28T13:47:31;4.93;;;2.50;;
49147;SDS011;41980;45.550;12.070;2022-10-28T13:53:36;2.30;;;1.33;;
49147;SDS011;41980;45.550;12.070;2022-10-28T13:59:45;2.67;;;1.55;;
49147;SDS011;41980;45.550;12.070;2022-10-28T14:05:53;2.25;;;1.20;;
49147;SDS011;41980;45.550;12.070;2022-10-28T14:24:29;4.90;;;1.90;;
49147;SDS011;41980;45.550;12.070;2022-10-28T14:30:35;3.78;;;1.45;;
49147;SDS011;41980;45.550;12.070;2022-10-28T14:48:56;3.00;;;1.42;;
49147;SDS011;41980;45.550;12.070;2022-10-28T14:55:01;4.57;;;2.05;;
49147;SDS011;41980;45.550;12.070;2022-10-28T15:01:13;2.88;;;1.45;;
49147;SDS011;41980;45.550;12.070;2022-10-28T15:07:23;3.00;;;1.23;;
49147;SDS011;41980;45.550;12.070;2022-10-28T15:13:28;2.72;;;1.55;;
49147;SDS011;41980;45.550;12.070;2022-10-28T15:19:34;2.67;;;1.20;;
49147;SDS011;41980;45.550;12.070;2022-10-28T15:25:40;2.25;;;1.27;;
49147;SDS011;41980;45.550;12.070;2022-10-28T15:56:32;2.58;;;1.42;;
49147;SDS011;41980;45.550;12.070;2022-10-28T16:09:03;3.72;;;1.83;;
49147;SDS011;41980;45.550;12.070;2022-10-28T16:15:14;5.85;;;2.60;;
49147;SDS011;41980;45.550;12.070;2022-10-28T16:21:21;4.03;;;1.80;;
49147;SDS011;41980;45.550;12.070;2022-10-28T16:27:28;3.30;;;2.05;;
49147;SDS011;41980;45.550;12.070;2022-10-28T16:33:32;5.05;;;2.10;;
49147;SDS011;41980;45.550;12.070;2022-10-28T16:39:38;3.72;;;1.77;;
49147;SDS011;41980;45.550;12.070;2022-10-28T16:46:11;6.10;;;2.47;;
49147;SDS011;41980;45.550;12.070;2022-10-28T16:52:15;6.10;;;2.85;;
49147;SDS011;41980;45.550;12.070;2022-10-28T16:58:20;7.20;;;2.88;;
49147;SDS011;41980;45.550;12.070;2022-10-28T17:04:22;5.72;;;2.40;;
49147;SDS011;41980;45.550;12.070;2022-10-28T17:10:25;4.65;;;2.92;;
49147;SDS011;41980;45.550;12.070;2022-10-28T17:16:27;5.10;;;3.40;;
49147;SDS011;41980;45.550;12.070;2022-10-28T17:22:30;6.22;;;4.00;;
49147;SDS011;41980;45.550;12.070;2022-10-28T17:28:32;5.45;;;3.78;;
49147;SDS011;41980;45.550;12.070;2022-10-28T17:34:34;6.15;;;4.35;;
49147;SDS011;41980;45.550;12.070;2022-10-28T17:40:39;8.95;;;4.88;;
49147;SDS011;41980;45.550;12.070;2022-10-28T17:46:41;4.57;;;3.20;;
49147;SDS011;41980;45.550;12.070;2022-10-28T17:52:43;6.22;;;4.10;;
49147;SDS011;41980;45.550;12.070;2022-10-28T17:58:45;5.68;;;3.60;;
49147;SDS011;41980;45.550;12.070;2022-10-28T18:04:49;6.13;;;4.22;;
49147;SDS011;41980;45.550;12.070;2022-10-28T18:10:52;6.32;;;3.97;;
49147;SDS011;41980;45.550;12.070;2022-10-28T18:16:56;9.80;;;5.80;;
49147;SDS011;41980;45.550;12.070;2022-10-28T18:22:58;5.97;;;3.90;;
49147;SDS011;41980;45.550;12.070;2022-10-28T18:29:00;5.38;;;3.75;;
49147;SDS011;41980;45.550;12.070;2022-10-28T18:35:04;6.85;;;4.00;;
49147;SDS011;41980;45.550;12.070;2022-10-28T18:41:09;5.82;;;3.80;;
49147;SDS011;41980;45.550;12.070;2022-10-28T18:47:13;6.30;;;3.08;;
49147;SDS011;41980;45.550;12.070;2022-10-28T18:53:15;7.10;;;4.15;;
49147;SDS011;41980;45.550;12.070;2022-10-28T18:59:16;5.68;;;3.20;;
49147;SDS011;41980;45.550;12.070;2022-10-28T19:05:18;5.60;;;3.25;;
49147;SDS011;41980;45.550;12.070;2022-10-28T19:11:21;6.25;;;3.80;;
49147;SDS011;41980;45.550;12.070;2022-10-28T19:17:30;6.00;;;4.05;;
49147;SDS011;41980;45.550;12.070;2022-10-28T19:23:32;7.03;;;4.38;;
49147;SDS011;41980;45.550;12.070;2022-10-28T19:29:35;8.38;;;5.15;;
49147;SDS011;41980;45.550;12.070;2022-10-28T19:35:37;6.40;;;4.50;;
49147;SDS011;41980;45.550;12.070;2022-10-28T19:41:39;5.40;;;4.10;;
49147;SDS011;41980;45.550;12.070;2022-10-28T19:47:42;7.93;;;4.93;;
49147;SDS011;41980;45.550;12.070;2022-10-28T19:53:45;7.40;;;4.82;;
49147;SDS011;41980;45.550;12.070;2022-10-28T19:59:48;7.03;;;4.80;;
49147;SDS011;41980;45.550;12.070;2022-10-28T20:11:59;6.93;;;4.13;;
49147;SDS011;41980;45.550;12.070;2022-10-28T20:18:02;6.15;;;3.33;;
49147;SDS011;41980;45.550;12.070;2022-10-28T20:24:05;5.25;;;3.70;;
49147;SDS011;41980;45.550;12.070;2022-10-28T20:30:08;5.53;;;3.53;;
49147;SDS011;41980;45.550;12.070;2022-10-28T20:42:19;6.85;;;4.40;;
49147;SDS011;41980;45.550;12.070;2022-10-28T20:48:21;7.03;;;4.53;;
49147;SDS011;41980;45.550;12.070;2022-10-28T20:54:23;6.22;;;4.40;;
49147;SDS011;41980;45.550;12.070;2022-10-28T21:00:25;9.95;;;6.63;;
49147;SDS011;41980;45.550;12.070;2022-10-28T21:06:28;12.18;;;7.05;;
49147;SDS011;41980;45.550;12.070;2022-10-28T21:12:31;8.98;;;5.80;;
49147;SDS011;41980;45.550;12.070;2022-10-28T21:18:34;12.02;;;7.30;;
49147;SDS011;41980;45.550;12.070;2022-10-28T21:24:37;13.90;;;8.80;;
49147;SDS011;41980;45.550;12.070;2022-10-28T21:30:39;13.27;;;7.97;;
49147;SDS011;41980;45.550;12.070;2022-10-28T21:36:41;9.75;;;6.88;;
49147;SDS011;41980;45.550;12.070;2022-10-28T21:42:46;12.85;;;9.30;;
49147;SDS011;41980;45.550;12.070;2022-10-28T21:48:49;14.30;;;9.63;;
49147;SDS011;41980;45.550;12.070;2022-10-28T21:54:53;15.98;;;10.27;;
49147;SDS011;41980;45.550;12.070;2022-10-28T22:07:03;17.95;;;12.73;;
49147;SDS011;41980;45.550;12.070;2022-10-28T22:13:05;15.23;;;10.30;;
49147;SDS011;41980;45.550;12.070;2022-10-28T22:19:08;16.15;;;10.60;;
49147;SDS011;41980;45.550;12.070;2022-10-28T22:25:15;13.43;;;9.55;;
49147;SDS011;41980;45.550;12.070;2022-10-28T22:31:21;13.77;;;9.63;;
49147;SDS011;41980;45.550;12.070;2022-10-28T22:37:25;12.13;;;8.20;;
49147;SDS011;41980;45.550;12.070;2022-10-28T22:43:27;10.68;;;7.40;;
49147;SDS011;41980;45.550;12.070;2022-10-28T22:49:29;11.40;;;7.93;;
49147;SDS011;41980;45.550;12.070;2022-10-28T22:55:31;11.77;;;7.70;;
49147;SDS011;41980;45.550;12.070;2022-10-28T23:01:37;9.18;;;6.50;;
49147;SDS011;41980;45.550;12.070;2022-10-28T23:07:39;13.15;;;8.73;;
49147;SDS011;41980;45.550;12.070;2022-10-28T23:13:41;8.40;;;6.07;;
49147;SDS011;41980;45.550;12.070;2022-10-28T23:19:43;12.27;;;8.52;;
49147;SDS011;41980;45.550;12.070;2022-10-28T23:31:52;11.80;;;8.23;;
49147;SDS011;41980;45.550;12.070;2022-10-28T23:37:54;9.93;;;7.20;;
49147;SDS011;41980;45.550;12.070;2022-10-28T23:43:56;12.15;;;9.13;;
49147;SDS011;41980;45.550;12.070;2022-10-28T23:50:00;10.63;;;8.00;;
49147;SDS011;41980;45.550;12.070;2022-10-28T23:56:03;10.05;;;6.28;;
